Thursday, April 26, 2018, 8:42 PM GMT
Back to Local

CYPD, Port Hawkesbury

Location: , , Canada Lat: 45.667
Local Time: 8:42 PM GMT (20:42 GMT) Lon: -61.383
Time Zone: GMT Elev: 374 ft

Show me the last for .
Show Decoded

2018-04-26 20:00 METAR CYPD 262000Z AUTO 14016G30KT 110V180 3SM RA BR OVC004 11/10 A2982 RMK
                 SLP103 =
2018-04-26 19:47 METAR CYPD 261947Z AUTO 14019G30KT 5SM -RA BR OVC004 11/11 A2983 RMK SLP106 =
2018-04-26 19:38 METAR CYPD 261938Z AUTO 14018G29KT 6SM -RA BR OVC004 11/11 A2984 RMK PRESFR
                 SLP108 =
2018-04-26 19:00 METAR CYPD 261900Z AUTO 13013G19KT 3SM -RA BR OVC004 10/09 A2987 RMK SLP121 =
2018-04-26 18:42 METAR CYPD 261842Z AUTO 13012G20KT 3SM -RA BR OVC004 09/09 A2989 RMK PRESFR
                 SLP126 =
2018-04-26 18:16 METAR CYPD 261816Z AUTO 12012G17KT 2 1/2SM RA BR OVC004 09/09 A2991 RMK VIS VRB
                 1 1/2-3 SLP134 =
2018-04-26 18:00 METAR CYPD 261800Z AUTO 12013G18KT 3SM -RA BR OVC004 09/09 A2992 RMK PRESFR PCPN
                 5.5MM PAST HR SLP138 =
2018-04-26 17:00 METAR CYPD 261700Z AUTO 14014G25KT 3SM -RA BR OVC004 10/09 A2996 RMK TS/LTNG
                 TEMPO UNAVBL SLP151 =
2018-04-26 16:49 METAR CYPD 261649Z AUTO 14015G25KT 5SM -RA BR OVC004 10/09 A2997 RMK TS/LTNG
                 TEMPO UNAVBL SLP152 =
2018-04-26 16:27 METAR CYPD 261627Z AUTO 14015G24KT 9SM -RA OVC006 11/10 A2997 RMK SLP153 =
2018-04-26 16:12 METAR CYPD 261612Z AUTO 14014G21KT 9SM OVC006 11/10 A2998 RMK SLP158 =
2018-04-26 16:00 METAR CYPD 261600Z AUTO 14014G19KT 9SM -RA OVC006 11/09 A2999 RMK SLP160 =
2018-04-26 15:48 METAR CYPD 261548Z AUTO 14012G22KT 9SM -RA OVC006 11/10 A3000 RMK PRESFR SLP162
                 =
2018-04-26 15:00 METAR CYPD 261500Z AUTO 13011G16KT 9SM OVC008 10/09 A3004 RMK SLP176 =
2018-04-26 14:44 METAR CYPD 261444Z AUTO 13011G17KT 9SM OVC008 10/09 A3004 RMK SLP178 =
2018-04-26 14:23 METAR CYPD 261423Z AUTO 13012KT 9SM -RA OVC008 10/09 A3005 RMK SLP180 =
2018-04-26 14:00 METAR CYPD 261400Z AUTO 14010G18KT 100V170 9SM OVC010 10/09 A3006 RMK SLP183 =
2018-04-26 13:55 METAR CYPD 261355Z AUTO 13011G18KT 9SM OVC010 10/09 A3006 RMK SLP184 =
2018-04-26 13:40 METAR CYPD 261340Z AUTO 13011G18KT 9SM -RA OVC012 10/09 A3007 RMK SLP186 =
2018-04-26 13:39 METAR CYPD 261339Z AUTO 13011G18KT 9SM OVC012 10/09 A3007 RMK SLP186 =
2018-04-26 13:15 METAR CYPD 261315Z AUTO 14013KT 9SM -RA BKN014 OVC027 11/09 A3008 RMK SLP190 =
2018-04-26 13:01 METAR CYPD 261301Z AUTO 14009G15KT 110V170 9SM -RA FEW014 BKN029 BKN039 OVC049
                 11/09 A3009 RMK SLP192 =
2018-04-26 13:00 METAR CYPD 261300Z AUTO 14008G15KT 110V170 9SM FEW014 BKN029 BKN039 OVC049 11/08
                 A3009 RMK SLP192 =
2018-04-26 12:00 METAR CYPD 261200Z AUTO 15011G22KT 9SM SCT029 SCT043 BKN060 11/09 A3010 RMK
                 SLP196 =
2018-04-26 11:00 METAR CYPD 261100Z AUTO 17010G16KT 9SM BKN033 11/09 A3012 RMK SLP202 =
2018-04-26 10:19 METAR CYPD 261019Z AUTO 14005KT 070V180 9SM SCT011 BKN025 OVC031 08/07 A3012 RMK
                 SLP205 =
2018-04-26 10:02 METAR CYPD 261002Z AUTO 07006KT 9SM BKN011 BKN027 BKN034 08/07 A3013 RMK SLP206
                 =
2018-04-26 10:00 METAR CYPD 261000Z AUTO 07006KT 9SM SCT011 BKN027 BKN034 08/07 A3013 RMK SLP206
                 =
2018-04-26 09:00 METAR CYPD 260900Z AUTO 10007KT 9SM FEW032 BKN150 06/05 A3014 RMK SLP210 =
2018-04-26 08:00 METAR CYPD 260800Z AUTO 08005KT 9SM BKN140 06/05 A3015 RMK SLP212 =
2018-04-26 07:00 METAR CYPD 260700Z AUTO 10008KT 9SM OVC170 06/05 A3017 RMK SLP219 =
2018-04-26 06:00 METAR CYPD 260600Z AUTO 11006KT 9SM OVC160 06/05 A3018 RMK SLP223 =
2018-04-26 05:00 METAR CYPD 260500Z AUTO 13007KT 9SM BKN160 07/05 A3019 RMK SLP228 =
2018-04-26 04:00 METAR CYPD 260400Z AUTO 17006KT 9SM FEW046 09/06 A3022 RMK SLP236 =
2018-04-26 03:00 METAR CYPD 260300Z AUTO 19006KT 9SM FEW044 09/06 A3023 RMK SLP240 =
2018-04-26 02:00 METAR CYPD 260200Z AUTO 18007KT 9SM CLR 10/05 A3023 RMK SLP241 =
2018-04-26 01:00 METAR CYPD 260100Z AUTO 19004KT 9SM CLR 11/05 A3025 RMK SLP247 =
2018-04-26 00:00 METAR CYPD 260000Z AUTO 19005KT 9SM FEW140 SCT200 SCT230 12/05 A3024 RMK SLP245
                 =
2018-04-25 23:00 METAR CYPD 252300Z AUTO 23008G15KT 180V240 9SM FEW150 12/05 A3023 RMK SLP241 =
2018-04-25 22:00 METAR CYPD 252200Z AUTO 22007KT 9SM CLR 14/06 A3022 RMK SLP237 =
2018-04-25 21:00 METAR CYPD 252100Z AUTO 22011G19KT 9SM CLR 15/05 A3021 RMK SLP234 =

Support USWX by starting your Amazon purchase here.